createdAt,value
2022-11-28T00:04:13.820Z,91.40
2022-11-28T00:09:22.186Z,91.62
2022-11-28T00:14:30.042Z,91.44
2022-11-28T00:19:36.146Z,91.84
2022-11-28T00:24:42.905Z,91.66
2022-11-28T00:29:50.811Z,91.72
2022-11-28T00:34:57.325Z,91.61
2022-11-28T00:40:04.788Z,91.54
2022-11-28T00:45:13.218Z,91.52
2022-11-28T00:50:19.717Z,91.42
2022-11-28T00:55:25.963Z,91.68
2022-11-28T01:00:33.647Z,91.77
2022-11-28T01:05:43.911Z,91.98
2022-11-28T01:10:51.670Z,92.02
2022-11-28T01:16:00.842Z,92.02
2022-11-28T01:21:08.299Z,92.02
2022-11-28T01:26:19.314Z,92.11
2022-11-28T01:31:30.572Z,91.84
2022-11-28T01:36:37.397Z,91.76
2022-11-28T01:41:44.631Z,91.76
2022-11-28T01:46:52.784Z,91.91
2022-11-28T01:52:04.772Z,91.99
2022-11-28T01:57:17.022Z,91.87
2022-11-28T02:02:33.992Z,92.01
2022-11-28T02:07:41.362Z,92.00
2022-11-28T02:13:15.272Z,92.26
2022-11-28T02:18:50.308Z,92.34
2022-11-28T02:24:42.666Z,92.37
2022-11-28T02:30:31.029Z,92.27
2022-11-28T02:35:57.846Z,92.23
2022-11-28T02:41:24.710Z,91.85
2022-11-28T02:46:37.322Z,92.00
2022-11-28T02:51:50.823Z,92.00
2022-11-28T02:56:57.793Z,91.89
2022-11-28T03:02:04.968Z,91.78
2022-11-28T03:07:26.315Z,91.79
2022-11-28T03:12:51.989Z,92.04
2022-11-28T03:18:11.566Z,91.75
2022-11-28T03:23:23.146Z,91.82
2022-11-28T03:28:42.037Z,91.98
2022-11-28T03:33:56.332Z,91.85
2022-11-28T03:39:08.342Z,91.98
2022-11-28T03:44:27.476Z,91.99
2022-11-28T03:49:39.403Z,91.83
2022-11-28T03:54:53.995Z,91.69
2022-11-28T04:00:05.170Z,91.52
2022-11-28T04:05:29.313Z,90.52
2022-11-28T04:10:43.416Z,90.95
2022-11-28T04:15:57.664Z,90.81
2022-11-28T04:21:12.429Z,90.82
2022-11-28T04:26:28.843Z,90.83
2022-11-28T04:31:35.781Z,90.71
2022-11-28T04:36:45.150Z,91.07
2022-11-28T04:41:58.412Z,91.11
2022-11-28T04:47:06.120Z,91.14
2022-11-28T04:52:20.439Z,91.41
2022-11-28T04:57:35.062Z,91.32
2022-11-28T05:02:43.429Z,91.05
2022-11-28T05:07:49.867Z,91.43
2022-11-28T05:12:57.414Z,91.33
2022-11-28T05:18:03.516Z,91.30
2022-11-28T05:23:10.314Z,90.92
2022-11-28T05:28:18.142Z,91.29
2022-11-28T05:33:24.779Z,91.50
2022-11-28T05:38:31.070Z,91.41
2022-11-28T05:43:38.864Z,90.97
2022-11-28T05:48:45.767Z,91.36
2022-11-28T05:53:52.264Z,91.82
2022-11-28T05:59:00.031Z,91.96
2022-11-28T06:04:06.428Z,91.60
2022-11-28T06:09:13.102Z,91.72
2022-11-28T06:14:20.766Z,91.52
2022-11-28T06:19:27.255Z,91.75
2022-11-28T06:24:33.870Z,92.05
2022-11-28T06:29:41.885Z,92.07
2022-11-28T06:34:48.356Z,92.07
2022-11-28T06:39:54.766Z,92.42
2022-11-28T06:45:02.640Z,92.30
2022-11-28T06:50:11.938Z,92.32
2022-11-28T06:55:19.137Z,92.47
2022-11-28T07:00:27.796Z,92.37
2022-11-28T07:05:33.984Z,92.48
2022-11-28T07:10:40.183Z,92.57
2022-11-28T07:15:52.684Z,92.91
2022-11-28T07:20:58.742Z,92.89
2022-11-28T07:26:06.763Z,92.89
2022-11-28T07:31:17.677Z,93.15
2022-11-28T07:36:27.933Z,92.85
2022-11-28T07:41:34.909Z,93.20
2022-11-28T07:46:43.059Z,93.07
2022-11-28T07:51:49.513Z,92.87
2022-11-28T07:57:12.716Z,92.90
2022-11-28T08:02:20.991Z,92.58
2022-11-28T08:07:29.351Z,93.03
2022-11-28T08:12:35.606Z,93.01
2022-11-28T08:17:43.351Z,92.77
2022-11-28T08:22:49.687Z,92.39
2022-11-28T08:27:55.999Z,92.49
2022-11-28T08:33:04.376Z,92.50
2022-11-28T08:38:10.653Z,92.42
2022-11-28T08:43:17.234Z,92.72
2022-11-28T08:48:25.847Z,92.56
2022-11-28T08:53:32.653Z,92.33
2022-11-28T08:58:39.196Z,92.30
2022-11-28T09:03:47.586Z,92.39
2022-11-28T09:08:54.628Z,92.33
2022-11-28T09:14:02.462Z,92.20
2022-11-28T09:19:11.131Z,92.35
2022-11-28T09:24:17.369Z,91.83
2022-11-28T09:29:23.704Z,91.92
2022-11-28T09:34:31.571Z,91.83
2022-11-28T09:39:57.022Z,91.66
2022-11-28T09:45:08.410Z,91.77
2022-11-28T09:50:21.281Z,91.52
2022-11-28T09:55:36.777Z,91.14
2022-11-28T10:00:57.827Z,91.03
2022-11-28T10:06:19.199Z,91.00
2022-11-28T10:11:41.239Z,91.27
2022-11-28T10:16:58.308Z,90.91
2022-11-28T10:22:13.793Z,91.15
2022-11-28T10:27:26.621Z,90.98
2022-11-28T10:32:38.009Z,90.75
2022-11-28T10:37:46.937Z,90.75
2022-11-28T10:43:02.842Z,90.35
2022-11-28T10:48:40.057Z,90.07
2022-11-28T10:54:01.158Z,89.86
2022-11-28T10:59:18.965Z,89.54
2022-11-28T11:04:28.788Z,89.52
2022-11-28T11:09:36.474Z,89.50
2022-11-28T11:14:43.437Z,89.80
2022-11-28T11:19:50.150Z,89.60
2022-11-28T11:25:15.700Z,89.33
2022-11-28T11:30:29.242Z,89.48
2022-11-28T11:35:44.262Z,88.94
2022-11-28T11:40:53.388Z,88.74
2022-11-28T11:46:11.613Z,88.65
2022-11-28T11:51:27.583Z,88.55
2022-11-28T11:56:39.958Z,88.38
2022-11-28T12:01:48.503Z,87.88
2022-11-28T12:06:57.022Z,87.38
2022-11-28T12:12:15.629Z,87.35
2022-11-28T12:17:51.435Z,87.64
2022-11-28T12:23:16.994Z,87.67
2022-11-28T12:28:42.719Z,87.49
2022-11-28T12:34:03.358Z,87.43
2022-11-28T12:39:25.495Z,87.42
2022-11-28T12:45:06.010Z,87.87
2022-11-28T12:50:31.663Z,87.38
2022-11-28T12:55:50.118Z,87.31
2022-11-28T13:01:17.319Z,87.34
2022-11-28T13:06:33.961Z,86.61
2022-11-28T13:12:00.564Z,86.94
2022-11-28T13:17:21.387Z,86.38
2022-11-28T13:22:36.953Z,86.68
2022-11-28T13:27:53.559Z,86.88
2022-11-28T13:33:06.922Z,86.55
2022-11-28T13:38:45.143Z,87.01
2022-11-28T13:43:56.003Z,86.60
2022-11-28T13:49:15.395Z,86.40
2022-11-28T13:54:46.135Z,86.56
2022-11-28T14:00:04.882Z,86.80
2022-11-28T14:05:32.333Z,86.79
2022-11-28T14:11:27.418Z,86.77
2022-11-28T14:16:57.720Z,87.02
2022-11-28T14:22:22.179Z,87.00
2022-11-28T14:27:33.738Z,87.19
2022-11-28T14:32:44.282Z,87.20
2022-11-28T14:37:55.770Z,87.47
2022-11-28T14:43:26.900Z,87.46
2022-11-28T14:48:33.544Z,87.33
2022-11-28T14:53:47.037Z,87.09
2022-11-28T14:59:02.288Z,87.21
2022-11-28T15:04:33.067Z,87.22
2022-11-28T15:09:48.022Z,87.45
2022-11-28T15:14:58.605Z,87.45
2022-11-28T15:20:10.735Z,87.73
2022-11-28T15:25:25.390Z,87.70
2022-11-28T15:30:33.087Z,87.74
2022-11-28T15:35:40.384Z,87.95
2022-11-28T15:40:53.365Z,87.97
2022-11-28T15:46:03.396Z,87.80
2022-11-28T15:51:29.728Z,87.97
2022-11-28T15:56:39.062Z,87.89
2022-11-28T16:01:45.762Z,87.77
2022-11-28T16:06:57.859Z,87.71
2022-11-28T16:12:14.131Z,87.78
2022-11-28T16:17:25.552Z,87.93
2022-11-28T16:22:38.777Z,87.76
2022-11-28T16:27:49.495Z,87.71
2022-11-28T16:32:58.223Z,87.69
2022-11-28T16:38:17.136Z,87.64
2022-11-28T16:43:33.118Z,87.54
2022-11-28T16:48:48.935Z,87.61
2022-11-28T16:53:57.011Z,87.63
2022-11-28T16:59:13.196Z,87.84
2022-11-28T17:04:24.648Z,87.72
2022-11-28T17:09:32.144Z,87.87
2022-11-28T17:14:41.103Z,87.86
2022-11-28T17:19:48.799Z,87.76
2022-11-28T17:25:02.045Z,87.63
2022-11-28T17:30:16.382Z,87.88
2022-11-28T17:35:26.500Z,87.87
2022-11-28T17:40:37.244Z,88.13
2022-11-28T17:45:51.041Z,87.97
2022-11-28T17:50:58.295Z,88.12
2022-11-28T17:56:06.927Z,88.21
2022-11-28T18:01:20.602Z,88.08
2022-11-28T18:06:29.348Z,88.40
2022-11-28T18:11:37.720Z,88.06
2022-11-28T18:16:48.126Z,88.46
2022-11-28T18:21:56.643Z,88.13
2022-11-28T18:27:05.402Z,88.24
2022-11-28T18:32:13.632Z,88.15
2022-11-28T18:37:20.981Z,88.37
2022-11-28T18:42:29.699Z,88.38
2022-11-28T18:47:39.355Z,88.50
2022-11-28T18:52:47.965Z,88.15
2022-11-28T18:57:56.376Z,88.16
2022-11-28T19:03:05.978Z,88.02
2022-11-28T19:08:13.301Z,88.12
2022-11-28T19:13:21.864Z,87.81
2022-11-28T19:18:30.042Z,87.84
2022-11-28T19:23:42.131Z,87.39
2022-11-28T19:28:56.319Z,86.87
2022-11-28T19:34:10.732Z,86.44
2022-11-28T19:39:23.002Z,86.35
2022-11-28T19:44:31.492Z,85.81
2022-11-28T19:49:40.914Z,85.30
2022-11-28T19:54:48.410Z,85.24
2022-11-28T19:59:57.095Z,85.06
2022-11-28T20:05:05.851Z,84.69
2022-11-28T20:10:15.158Z,84.54
2022-11-28T20:15:22.989Z,84.51
2022-11-28T20:20:31.900Z,84.95
2022-11-28T20:25:39.447Z,84.28
2022-11-28T20:30:46.514Z,84.25
2022-11-28T20:36:05.963Z,84.41
2022-11-28T20:41:20.733Z,84.58
2022-11-28T20:46:31.389Z,84.34
2022-11-28T20:51:40.897Z,84.20
2022-11-28T21:02:17.232Z,84.44
2022-11-28T21:07:28.300Z,84.80
2022-11-28T21:12:37.740Z,84.41
2022-11-28T21:17:45.400Z,84.54
2022-11-28T21:22:53.210Z,84.50
2022-11-28T21:28:00.085Z,84.63
2022-11-28T21:33:06.451Z,84.88
2022-11-28T21:38:14.267Z,84.73
2022-11-28T21:43:21.000Z,84.82
2022-11-28T21:48:27.730Z,84.33
2022-11-28T21:53:36.696Z,84.39
2022-11-28T21:58:43.177Z,84.21
2022-11-28T22:03:49.750Z,84.35
2022-11-28T22:08:58.676Z,84.29
2022-11-28T22:14:05.127Z,84.00
2022-11-28T22:19:12.093Z,83.91
2022-11-28T22:24:20.164Z,84.02
2022-11-28T22:29:27.986Z,83.87
2022-11-28T22:34:39.538Z,84.02
2022-11-28T22:39:48.362Z,84.08
2022-11-28T22:44:54.871Z,83.61
2022-11-28T22:50:02.300Z,84.18
2022-11-28T22:55:11.589Z,83.71
2022-11-28T23:00:21.296Z,83.97
2022-11-28T23:05:28.273Z,84.06
2022-11-28T23:10:39.401Z,84.06
2022-11-28T23:15:52.504Z,83.96
2022-11-28T23:20:59.411Z,83.86
2022-11-28T23:26:08.677Z,83.70
2022-11-28T23:31:17.199Z,83.62
2022-11-28T23:36:26.516Z,83.33
2022-11-28T23:41:34.739Z,83.53
2022-11-28T23:46:42.106Z,83.25
2022-11-28T23:51:48.417Z,83.05
2022-11-28T23:56:56.267Z,83.22
